Terminal Aerodrome Forecast
Issued by NWS Memphis, TN

Home | Current Version | Previous Version | Text Only | Print | Product List | Glossary On
Versions: 1 2 3 4 5 6 7 8 9 10 11 12 13 14 15 16 17 18 19 20 21 22 23 24 25 26 27 28 29 30 31 32 33 34 35 36
000
FTUS44 KMEG 190532
TAFMKL
TAF
KMKL 190532Z 1906/2006 34016G26KT 5SM -SHRA BR BKN006 OVC010
     FM190800 35015G22KT P6SM VCSH OVC009
     FM191800 35014G20KT P6SM VCSH OVC015
     FM200000 32011KT P6SM OVC015=

USA.gov is the U.S. government's official web portal to all federal, state and local government web resources and services.